sensor_id;sensor_type;location;lat;lon;timestamp;P1;durP1;ratioP1;P2;durP2;ratioP2
31730;SDS011;18310;55.586;12.286;2023-07-31T00:01:42;2.70;;;0.77;;
31730;SDS011;18310;55.586;12.286;2023-07-31T00:04:48;8.73;;;0.95;;
31730;SDS011;18310;55.586;12.286;2023-07-31T00:07:56;3.25;;;0.75;;
31730;SDS011;18310;55.586;12.286;2023-07-31T00:11:00;3.83;;;0.88;;
31730;SDS011;18310;55.586;12.286;2023-07-31T00:14:05;3.60;;;0.85;;
31730;SDS011;18310;55.586;12.286;2023-07-31T00:17:08;2.53;;;0.90;;
31730;SDS011;18310;55.586;12.286;2023-07-31T00:20:12;6.45;;;1.20;;
31730;SDS011;18310;55.586;12.286;2023-07-31T00:23:21;4.65;;;1.05;;
31730;SDS011;18310;55.586;12.286;2023-07-31T00:26:26;5.18;;;1.15;;
31730;SDS011;18310;55.586;12.286;2023-07-31T00:29:29;3.97;;;1.03;;
31730;SDS011;18310;55.586;12.286;2023-07-31T00:32:34;3.55;;;0.77;;
31730;SDS011;18310;55.586;12.286;2023-07-31T00:35:38;4.75;;;1.27;;
31730;SDS011;18310;55.586;12.286;2023-07-31T00:38:46;4.93;;;1.00;;
31730;SDS011;18310;55.586;12.286;2023-07-31T00:41:51;4.78;;;0.80;;
31730;SDS011;18310;55.586;12.286;2023-07-31T00:44:58;3.22;;;0.70;;
31730;SDS011;18310;55.586;12.286;2023-07-31T00:48:03;5.13;;;1.20;;
31730;SDS011;18310;55.586;12.286;2023-07-31T00:51:09;8.60;;;0.80;;
31730;SDS011;18310;55.586;12.286;2023-07-31T00:54:36;4.03;;;1.10;;
31730;SDS011;18310;55.586;12.286;2023-07-31T00:57:41;5.20;;;1.23;;
31730;SDS011;18310;55.586;12.286;2023-07-31T01:03:49;4.07;;;1.07;;
31730;SDS011;18310;55.586;12.286;2023-07-31T01:07:00;6.47;;;1.40;;
31730;SDS011;18310;55.586;12.286;2023-07-31T01:10:11;5.40;;;1.23;;
31730;SDS011;18310;55.586;12.286;2023-07-31T01:13:21;4.28;;;1.30;;
31730;SDS011;18310;55.586;12.286;2023-07-31T01:16:25;7.20;;;1.27;;
31730;SDS011;18310;55.586;12.286;2023-07-31T01:19:30;6.15;;;1.58;;
31730;SDS011;18310;55.586;12.286;2023-07-31T01:26:15;4.60;;;0.90;;
31730;SDS011;18310;55.586;12.286;2023-07-31T01:29:23;5.18;;;1.42;;
31730;SDS011;18310;55.586;12.286;2023-07-31T01:32:34;4.22;;;1.30;;
31730;SDS011;18310;55.586;12.286;2023-07-31T01:35:38;3.13;;;0.93;;
31730;SDS011;18310;55.586;12.286;2023-07-31T01:38:47;3.80;;;0.93;;
31730;SDS011;18310;55.586;12.286;2023-07-31T01:41:52;6.70;;;1.25;;
31730;SDS011;18310;55.586;12.286;2023-07-31T01:44:55;8.45;;;1.73;;
31730;SDS011;18310;55.586;12.286;2023-07-31T01:48:01;6.38;;;1.15;;
31730;SDS011;18310;55.586;12.286;2023-07-31T01:51:04;3.70;;;1.30;;
31730;SDS011;18310;55.586;12.286;2023-07-31T01:54:08;7.82;;;1.20;;
31730;SDS011;18310;55.586;12.286;2023-07-31T01:57:14;8.95;;;1.55;;
31730;SDS011;18310;55.586;12.286;2023-07-31T02:00:18;5.18;;;1.58;;
31730;SDS011;18310;55.586;12.286;2023-07-31T02:03:22;6.50;;;1.77;;
31730;SDS011;18310;55.586;12.286;2023-07-31T02:06:30;7.32;;;1.63;;
31730;SDS011;18310;55.586;12.286;2023-07-31T02:09:37;3.88;;;1.17;;
31730;SDS011;18310;55.586;12.286;2023-07-31T02:12:43;5.43;;;1.20;;
31730;SDS011;18310;55.586;12.286;2023-07-31T02:15:48;5.82;;;1.25;;
31730;SDS011;18310;55.586;12.286;2023-07-31T02:18:52;13.20;;;1.80;;
31730;SDS011;18310;55.586;12.286;2023-07-31T02:21:56;12.00;;;2.15;;
31730;SDS011;18310;55.586;12.286;2023-07-31T02:25:02;7.15;;;1.60;;
31730;SDS011;18310;55.586;12.286;2023-07-31T02:28:09;5.25;;;1.73;;
31730;SDS011;18310;55.586;12.286;2023-07-31T02:31:14;5.03;;;1.17;;
31730;SDS011;18310;55.586;12.286;2023-07-31T02:34:24;4.38;;;1.48;;
31730;SDS011;18310;55.586;12.286;2023-07-31T02:37:28;4.10;;;1.17;;
31730;SDS011;18310;55.586;12.286;2023-07-31T02:40:33;6.93;;;1.38;;
31730;SDS011;18310;55.586;12.286;2023-07-31T02:43:39;7.38;;;1.17;;
31730;SDS011;18310;55.586;12.286;2023-07-31T02:46:44;12.20;;;1.60;;
31730;SDS011;18310;55.586;12.286;2023-07-31T02:49:49;5.38;;;1.50;;
31730;SDS011;18310;55.586;12.286;2023-07-31T02:52:54;5.43;;;1.80;;
31730;SDS011;18310;55.586;12.286;2023-07-31T02:55:59;11.13;;;1.98;;
31730;SDS011;18310;55.586;12.286;2023-07-31T02:59:06;11.48;;;1.80;;
31730;SDS011;18310;55.586;12.286;2023-07-31T03:02:11;3.40;;;1.13;;
31730;SDS011;18310;55.586;12.286;2023-07-31T03:05:15;6.63;;;1.80;;
31730;SDS011;18310;55.586;12.286;2023-07-31T03:14:30;4.95;;;1.35;;
31730;SDS011;18310;55.586;12.286;2023-07-31T03:17:33;9.13;;;1.60;;
31730;SDS011;18310;55.586;12.286;2023-07-31T03:23:46;5.75;;;1.80;;
31730;SDS011;18310;55.586;12.286;2023-07-31T03:26:54;7.05;;;1.73;;
31730;SDS011;18310;55.586;12.286;2023-07-31T03:30:02;14.15;;;1.90;;
31730;SDS011;18310;55.586;12.286;2023-07-31T03:33:11;4.13;;;1.23;;
31730;SDS011;18310;55.586;12.286;2023-07-31T03:36:16;7.88;;;1.58;;
31730;SDS011;18310;55.586;12.286;2023-07-31T03:39:22;5.40;;;1.40;;
31730;SDS011;18310;55.586;12.286;2023-07-31T03:42:29;7.82;;;1.70;;
31730;SDS011;18310;55.586;12.286;2023-07-31T03:45:36;5.35;;;1.17;;
31730;SDS011;18310;55.586;12.286;2023-07-31T03:48:41;11.57;;;1.55;;
31730;SDS011;18310;55.586;12.286;2023-07-31T03:51:46;6.72;;;1.50;;
31730;SDS011;18310;55.586;12.286;2023-07-31T03:54:57;4.47;;;1.40;;
31730;SDS011;18310;55.586;12.286;2023-07-31T03:58:07;6.40;;;1.67;;
31730;SDS011;18310;55.586;12.286;2023-07-31T04:01:13;5.00;;;1.60;;
31730;SDS011;18310;55.586;12.286;2023-07-31T04:04:17;8.88;;;2.03;;
31730;SDS011;18310;55.586;12.286;2023-07-31T04:07:21;6.55;;;1.50;;
31730;SDS011;18310;55.586;12.286;2023-07-31T04:10:24;18.67;;;1.77;;
31730;SDS011;18310;55.586;12.286;2023-07-31T04:13:31;7.07;;;1.35;;
31730;SDS011;18310;55.586;12.286;2023-07-31T04:16:39;5.13;;;1.20;;
31730;SDS011;18310;55.586;12.286;2023-07-31T04:19:43;4.20;;;1.13;;
31730;SDS011;18310;55.586;12.286;2023-07-31T04:22:47;3.95;;;1.10;;
31730;SDS011;18310;55.586;12.286;2023-07-31T04:25:52;5.72;;;1.02;;
31730;SDS011;18310;55.586;12.286;2023-07-31T04:28:56;4.53;;;1.55;;
31730;SDS011;18310;55.586;12.286;2023-07-31T04:32:02;5.70;;;1.55;;
31730;SDS011;18310;55.586;12.286;2023-07-31T04:35:07;4.45;;;1.50;;
31730;SDS011;18310;55.586;12.286;2023-07-31T04:38:11;4.40;;;1.42;;
31730;SDS011;18310;55.586;12.286;2023-07-31T04:41:15;7.07;;;1.40;;
31730;SDS011;18310;55.586;12.286;2023-07-31T04:44:20;5.50;;;1.20;;
31730;SDS011;18310;55.586;12.286;2023-07-31T04:47:28;7.32;;;1.38;;
31730;SDS011;18310;55.586;12.286;2023-07-31T04:50:33;6.47;;;1.20;;
31730;SDS011;18310;55.586;12.286;2023-07-31T04:53:38;11.98;;;1.30;;
31730;SDS011;18310;55.586;12.286;2023-07-31T04:56:41;7.15;;;1.50;;
31730;SDS011;18310;55.586;12.286;2023-07-31T04:59:45;8.82;;;1.35;;
31730;SDS011;18310;55.586;12.286;2023-07-31T05:02:52;5.15;;;1.20;;
31730;SDS011;18310;55.586;12.286;2023-07-31T05:05:57;5.25;;;0.90;;
31730;SDS011;18310;55.586;12.286;2023-07-31T05:09:01;8.80;;;1.52;;
31730;SDS011;18310;55.586;12.286;2023-07-31T05:12:05;4.20;;;1.17;;
31730;SDS011;18310;55.586;12.286;2023-07-31T05:15:10;5.13;;;1.33;;
31730;SDS011;18310;55.586;12.286;2023-07-31T05:18:15;6.05;;;1.25;;
31730;SDS011;18310;55.586;12.286;2023-07-31T05:21:21;9.60;;;1.00;;
31730;SDS011;18310;55.586;12.286;2023-07-31T05:24:47;7.03;;;1.30;;
31730;SDS011;18310;55.586;12.286;2023-07-31T05:27:51;6.18;;;1.42;;
31730;SDS011;18310;55.586;12.286;2023-07-31T05:30:58;3.58;;;1.20;;
31730;SDS011;18310;55.586;12.286;2023-07-31T05:34:02;3.35;;;0.90;;
31730;SDS011;18310;55.586;12.286;2023-07-31T05:37:06;9.95;;;1.20;;
31730;SDS011;18310;55.586;12.286;2023-07-31T05:40:12;4.53;;;1.02;;
31730;SDS011;18310;55.586;12.286;2023-07-31T05:43:15;5.35;;;1.45;;
31730;SDS011;18310;55.586;12.286;2023-07-31T05:46:19;3.80;;;1.13;;
31730;SDS011;18310;55.586;12.286;2023-07-31T05:49:23;5.38;;;1.05;;
31730;SDS011;18310;55.586;12.286;2023-07-31T05:52:27;4.75;;;1.23;;
31730;SDS011;18310;55.586;12.286;2023-07-31T05:55:33;2.75;;;0.85;;
31730;SDS011;18310;55.586;12.286;2023-07-31T05:58:42;2.70;;;0.90;;
31730;SDS011;18310;55.586;12.286;2023-07-31T06:01:46;4.90;;;0.88;;
31730;SDS011;18310;55.586;12.286;2023-07-31T06:04:50;4.55;;;0.77;;
31730;SDS011;18310;55.586;12.286;2023-07-31T06:07:53;2.78;;;0.82;;
31730;SDS011;18310;55.586;12.286;2023-07-31T06:11:00;4.32;;;0.88;;
31730;SDS011;18310;55.586;12.286;2023-07-31T06:14:05;5.43;;;1.10;;
31730;SDS011;18310;55.586;12.286;2023-07-31T06:17:08;6.88;;;1.38;;
31730;SDS011;18310;55.586;12.286;2023-07-31T06:20:13;5.07;;;1.23;;
31730;SDS011;18310;55.586;12.286;2023-07-31T06:23:17;4.33;;;1.33;;
31730;SDS011;18310;55.586;12.286;2023-07-31T06:26:23;4.25;;;1.33;;
31730;SDS011;18310;55.586;12.286;2023-07-31T06:29:29;3.95;;;1.02;;
31730;SDS011;18310;55.586;12.286;2023-07-31T06:32:33;4.32;;;0.90;;
31730;SDS011;18310;55.586;12.286;2023-07-31T06:35:36;3.70;;;1.10;;
31730;SDS011;18310;55.586;12.286;2023-07-31T06:38:40;8.20;;;1.20;;
31730;SDS011;18310;55.586;12.286;2023-07-31T06:41:48;5.18;;;1.27;;
31730;SDS011;18310;55.586;12.286;2023-07-31T06:44:52;6.18;;;1.17;;
31730;SDS011;18310;55.586;12.286;2023-07-31T06:48:00;3.92;;;1.13;;
31730;SDS011;18310;55.586;12.286;2023-07-31T06:51:04;6.95;;;1.25;;
31730;SDS011;18310;55.586;12.286;2023-07-31T06:54:07;9.15;;;1.45;;
31730;SDS011;18310;55.586;12.286;2023-07-31T06:57:13;5.47;;;1.20;;
31730;SDS011;18310;55.586;12.286;2023-07-31T07:00:19;5.75;;;1.20;;
31730;SDS011;18310;55.586;12.286;2023-07-31T07:03:23;5.05;;;1.15;;
31730;SDS011;18310;55.586;12.286;2023-07-31T07:06:27;3.63;;;1.23;;
31730;SDS011;18310;55.586;12.286;2023-07-31T07:09:30;5.20;;;1.27;;
31730;SDS011;18310;55.586;12.286;2023-07-31T07:15:40;5.13;;;1.20;;
31730;SDS011;18310;55.586;12.286;2023-07-31T07:18:45;3.17;;;0.70;;
31730;SDS011;18310;55.586;12.286;2023-07-31T07:22:05;3.30;;;1.00;;
31730;SDS011;18310;55.586;12.286;2023-07-31T07:25:09;4.07;;;0.80;;
31730;SDS011;18310;55.586;12.286;2023-07-31T07:29:03;5.65;;;1.17;;
31730;SDS011;18310;55.586;12.286;2023-07-31T07:32:09;3.17;;;0.88;;
31730;SDS011;18310;55.586;12.286;2023-07-31T07:38:17;3.90;;;1.13;;
31730;SDS011;18310;55.586;12.286;2023-07-31T07:41:21;2.65;;;0.77;;
31730;SDS011;18310;55.586;12.286;2023-07-31T07:44:27;3.38;;;0.98;;
31730;SDS011;18310;55.586;12.286;2023-07-31T07:47:33;3.15;;;1.10;;
31730;SDS011;18310;55.586;12.286;2023-07-31T07:50:38;2.33;;;0.70;;
31730;SDS011;18310;55.586;12.286;2023-07-31T07:53:42;0.98;;;0.47;;
31730;SDS011;18310;55.586;12.286;2023-07-31T07:56:45;3.28;;;0.90;;
31730;SDS011;18310;55.586;12.286;2023-07-31T07:59:52;4.28;;;1.08;;
31730;SDS011;18310;55.586;12.286;2023-07-31T08:02:56;2.33;;;0.82;;
31730;SDS011;18310;55.586;12.286;2023-07-31T08:06:01;2.70;;;1.00;;
31730;SDS011;18310;55.586;12.286;2023-07-31T08:09:05;2.75;;;0.80;;
31730;SDS011;18310;55.586;12.286;2023-07-31T08:12:11;4.60;;;0.93;;
31730;SDS011;18310;55.586;12.286;2023-07-31T08:15:17;1.48;;;0.47;;
31730;SDS011;18310;55.586;12.286;2023-07-31T08:18:20;2.83;;;0.40;;
31730;SDS011;18310;55.586;12.286;2023-07-31T08:21:25;1.88;;;0.60;;
31730;SDS011;18310;55.586;12.286;2023-07-31T08:24:29;0.77;;;0.40;;
31730;SDS011;18310;55.586;12.286;2023-07-31T08:27:32;1.63;;;0.43;;
31730;SDS011;18310;55.586;12.286;2023-07-31T08:30:39;5.63;;;0.60;;
31730;SDS011;18310;55.586;12.286;2023-07-31T08:33:43;3.00;;;0.63;;
31730;SDS011;18310;55.586;12.286;2023-07-31T08:36:48;4.57;;;1.00;;
31730;SDS011;18310;55.586;12.286;2023-07-31T08:39:52;3.30;;;1.10;;
31730;SDS011;18310;55.586;12.286;2023-07-31T08:42:56;5.82;;;1.23;;
31730;SDS011;18310;55.586;12.286;2023-07-31T08:46:05;4.15;;;1.15;;
31730;SDS011;18310;55.586;12.286;2023-07-31T08:49:11;3.40;;;0.77;;
31730;SDS011;18310;55.586;12.286;2023-07-31T08:52:15;2.58;;;1.00;;
31730;SDS011;18310;55.586;12.286;2023-07-31T08:55:18;5.40;;;1.58;;
31730;SDS011;18310;55.586;12.286;2023-07-31T08:58:25;8.68;;;1.50;;
31730;SDS011;18310;55.586;12.286;2023-07-31T09:01:36;5.18;;;1.48;;
31730;SDS011;18310;55.586;12.286;2023-07-31T09:04:46;3.38;;;1.08;;
31730;SDS011;18310;55.586;12.286;2023-07-31T09:07:49;3.35;;;1.13;;
31730;SDS011;18310;55.586;12.286;2023-07-31T09:10:54;4.70;;;1.30;;
31730;SDS011;18310;55.586;12.286;2023-07-31T09:14:03;2.55;;;1.25;;
31730;SDS011;18310;55.586;12.286;2023-07-31T09:17:15;5.68;;;1.52;;
31730;SDS011;18310;55.586;12.286;2023-07-31T09:20:32;5.47;;;1.40;;
31730;SDS011;18310;55.586;12.286;2023-07-31T09:23:40;5.57;;;1.70;;
31730;SDS011;18310;55.586;12.286;2023-07-31T09:26:45;4.65;;;1.48;;
31730;SDS011;18310;55.586;12.286;2023-07-31T09:29:58;4.80;;;1.30;;
31730;SDS011;18310;55.586;12.286;2023-07-31T09:36:09;4.43;;;1.48;;
31730;SDS011;18310;55.586;12.286;2023-07-31T09:39:15;3.90;;;1.65;;
31730;SDS011;18310;55.586;12.286;2023-07-31T09:42:24;3.17;;;1.30;;
31730;SDS011;18310;55.586;12.286;2023-07-31T09:45:28;5.45;;;1.52;;
31730;SDS011;18310;55.586;12.286;2023-07-31T09:48:44;5.82;;;1.85;;
31730;SDS011;18310;55.586;12.286;2023-07-31T09:51:48;5.25;;;1.33;;
31730;SDS011;18310;55.586;12.286;2023-07-31T09:54:52;4.03;;;1.38;;
31730;SDS011;18310;55.586;12.286;2023-07-31T09:57:56;6.80;;;1.60;;
31730;SDS011;18310;55.586;12.286;2023-07-31T10:01:01;5.82;;;1.33;;
31730;SDS011;18310;55.586;12.286;2023-07-31T10:04:09;7.00;;;1.73;;
31730;SDS011;18310;55.586;12.286;2023-07-31T10:07:13;7.47;;;1.20;;
31730;SDS011;18310;55.586;12.286;2023-07-31T10:10:22;3.90;;;1.08;;
31730;SDS011;18310;55.586;12.286;2023-07-31T10:13:27;5.80;;;0.98;;
31730;SDS011;18310;55.586;12.286;2023-07-31T10:16:37;3.92;;;1.30;;
31730;SDS011;18310;55.586;12.286;2023-07-31T10:19:45;4.75;;;1.33;;
31730;SDS011;18310;55.586;12.286;2023-07-31T10:22:51;3.58;;;1.10;;
31730;SDS011;18310;55.586;12.286;2023-07-31T10:25:56;2.33;;;0.90;;
31730;SDS011;18310;55.586;12.286;2023-07-31T10:29:02;4.40;;;1.50;;
31730;SDS011;18310;55.586;12.286;2023-07-31T10:32:07;5.55;;;1.35;;
31730;SDS011;18310;55.586;12.286;2023-07-31T10:35:15;4.38;;;1.35;;
31730;SDS011;18310;55.586;12.286;2023-07-31T10:41:09;4.35;;;1.23;;
31730;SDS011;18310;55.586;12.286;2023-07-31T10:44:13;5.15;;;1.60;;
31730;SDS011;18310;55.586;12.286;2023-07-31T10:47:22;3.80;;;1.38;;
31730;SDS011;18310;55.586;12.286;2023-07-31T10:50:27;3.33;;;1.15;;
31730;SDS011;18310;55.586;12.286;2023-07-31T10:53:35;4.88;;;1.60;;
31730;SDS011;18310;55.586;12.286;2023-07-31T10:56:45;3.25;;;1.20;;
31730;SDS011;18310;55.586;12.286;2023-07-31T10:59:51;3.47;;;1.17;;
31730;SDS011;18310;55.586;12.286;2023-07-31T11:03:24;3.08;;;1.30;;
31730;SDS011;18310;55.586;12.286;2023-07-31T11:06:30;7.05;;;1.25;;
31730;SDS011;18310;55.586;12.286;2023-07-31T11:09:35;6.63;;;1.67;;
31730;SDS011;18310;55.586;12.286;2023-07-31T11:12:40;4.38;;;1.27;;
31730;SDS011;18310;55.586;12.286;2023-07-31T11:15:45;3.67;;;1.23;;
31730;SDS011;18310;55.586;12.286;2023-07-31T11:18:51;3.95;;;1.40;;
31730;SDS011;18310;55.586;12.286;2023-07-31T11:21:58;6.40;;;1.30;;
31730;SDS011;18310;55.586;12.286;2023-07-31T11:25:03;4.45;;;1.30;;
31730;SDS011;18310;55.586;12.286;2023-07-31T11:28:09;4.53;;;1.60;;
31730;SDS011;18310;55.586;12.286;2023-07-31T11:31:14;4.68;;;1.92;;
31730;SDS011;18310;55.586;12.286;2023-07-31T11:40:26;6.03;;;1.60;;
31730;SDS011;18310;55.586;12.286;2023-07-31T11:43:36;3.63;;;1.33;;
31730;SDS011;18310;55.586;12.286;2023-07-31T11:46:40;6.03;;;1.67;;
31730;SDS011;18310;55.586;12.286;2023-07-31T11:49:44;5.90;;;1.30;;
31730;SDS011;18310;55.586;12.286;2023-07-31T11:52:52;4.55;;;1.52;;
31730;SDS011;18310;55.586;12.286;2023-07-31T11:56:00;5.22;;;1.83;;
31730;SDS011;18310;55.586;12.286;2023-07-31T11:59:08;5.72;;;1.70;;
31730;SDS011;18310;55.586;12.286;2023-07-31T12:02:12;4.82;;;1.35;;
31730;SDS011;18310;55.586;12.286;2023-07-31T12:08:20;3.30;;;1.20;;
31730;SDS011;18310;55.586;12.286;2023-07-31T12:11:25;3.70;;;1.58;;
31730;SDS011;18310;55.586;12.286;2023-07-31T12:14:31;3.97;;;1.50;;
31730;SDS011;18310;55.586;12.286;2023-07-31T12:17:35;4.18;;;1.63;;
31730;SDS011;18310;55.586;12.286;2023-07-31T12:20:43;5.35;;;1.77;;
31730;SDS011;18310;55.586;12.286;2023-07-31T12:23:48;5.32;;;1.48;;
31730;SDS011;18310;55.586;12.286;2023-07-31T12:26:55;2.88;;;0.93;;
31730;SDS011;18310;55.586;12.286;2023-07-31T12:30:01;4.80;;;1.10;;
31730;SDS011;18310;55.586;12.286;2023-07-31T12:33:06;1.65;;;0.88;;
31730;SDS011;18310;55.586;12.286;2023-07-31T12:36:12;2.00;;;0.50;;
31730;SDS011;18310;55.586;12.286;2023-07-31T12:39:16;1.42;;;0.57;;
31730;SDS011;18310;55.586;12.286;2023-07-31T12:42:20;2.05;;;0.90;;
31730;SDS011;18310;55.586;12.286;2023-07-31T12:45:26;5.00;;;0.88;;
31730;SDS011;18310;55.586;12.286;2023-07-31T12:48:33;2.13;;;0.60;;
31730;SDS011;18310;55.586;12.286;2023-07-31T12:51:37;2.75;;;0.85;;
31730;SDS011;18310;55.586;12.286;2023-07-31T12:54:41;2.17;;;0.93;;
31730;SDS011;18310;55.586;12.286;2023-07-31T12:57:44;2.15;;;1.20;;
31730;SDS011;18310;55.586;12.286;2023-07-31T13:00:52;2.13;;;0.88;;
31730;SDS011;18310;55.586;12.286;2023-07-31T13:03:56;2.25;;;0.85;;
31730;SDS011;18310;55.586;12.286;2023-07-31T13:07:01;2.85;;;1.00;;
31730;SDS011;18310;55.586;12.286;2023-07-31T13:10:05;2.28;;;1.00;;
31730;SDS011;18310;55.586;12.286;2023-07-31T13:13:15;3.03;;;1.00;;
31730;SDS011;18310;55.586;12.286;2023-07-31T13:16:21;3.42;;;1.27;;
31730;SDS011;18310;55.586;12.286;2023-07-31T13:19:26;2.30;;;0.73;;
31730;SDS011;18310;55.586;12.286;2023-07-31T13:22:31;2.22;;;0.75;;
31730;SDS011;18310;55.586;12.286;2023-07-31T13:25:36;4.72;;;1.40;;
31730;SDS011;18310;55.586;12.286;2023-07-31T13:28:40;3.42;;;1.33;;
31730;SDS011;18310;55.586;12.286;2023-07-31T13:31:45;1.40;;;0.60;;
31730;SDS011;18310;55.586;12.286;2023-07-31T13:34:49;2.88;;;1.08;;
31730;SDS011;18310;55.586;12.286;2023-07-31T13:37:54;2.90;;;1.00;;
31730;SDS011;18310;55.586;12.286;2023-07-31T13:41:02;1.77;;;0.80;;
31730;SDS011;18310;55.586;12.286;2023-07-31T13:44:08;3.88;;;1.30;;
31730;SDS011;18310;55.586;12.286;2023-07-31T13:47:13;2.17;;;0.90;;
31730;SDS011;18310;55.586;12.286;2023-07-31T13:50:20;2.97;;;0.80;;
31730;SDS011;18310;55.586;12.286;2023-07-31T13:53:24;2.03;;;0.77;;
31730;SDS011;18310;55.586;12.286;2023-07-31T13:56:30;2.50;;;0.95;;
31730;SDS011;18310;55.586;12.286;2023-07-31T13:59:34;3.45;;;0.90;;
31730;SDS011;18310;55.586;12.286;2023-07-31T14:02:42;2.88;;;0.80;;
31730;SDS011;18310;55.586;12.286;2023-07-31T14:05:46;5.95;;;0.90;;
31730;SDS011;18310;55.586;12.286;2023-07-31T14:08:53;3.50;;;1.00;;
31730;SDS011;18310;55.586;12.286;2023-07-31T14:12:27;4.80;;;1.02;;
31730;SDS011;18310;55.586;12.286;2023-07-31T14:15:43;3.40;;;0.85;;
31730;SDS011;18310;55.586;12.286;2023-07-31T14:18:48;3.47;;;0.90;;
31730;SDS011;18310;55.586;12.286;2023-07-31T14:25:11;0.90;;;0.30;;
31730;SDS011;18310;55.586;12.286;2023-07-31T14:28:16;2.53;;;0.70;;
31730;SDS011;18310;55.586;12.286;2023-07-31T14:31:20;1.73;;;0.57;;
31730;SDS011;18310;55.586;12.286;2023-07-31T14:34:47;2.75;;;0.80;;
31730;SDS011;18310;55.586;12.286;2023-07-31T14:37:51;2.63;;;0.73;;
31730;SDS011;18310;55.586;12.286;2023-07-31T14:40:56;2.97;;;0.90;;
31730;SDS011;18310;55.586;12.286;2023-07-31T14:44:02;3.25;;;0.52;;
31730;SDS011;18310;55.586;12.286;2023-07-31T14:50:11;3.50;;;0.90;;
31730;SDS011;18310;55.586;12.286;2023-07-31T14:53:17;2.17;;;0.82;;
31730;SDS011;18310;55.586;12.286;2023-07-31T14:56:20;3.75;;;1.10;;
31730;SDS011;18310;55.586;12.286;2023-07-31T14:59:24;2.33;;;0.80;;
31730;SDS011;18310;55.586;12.286;2023-07-31T15:02:30;3.38;;;0.90;;
31730;SDS011;18310;55.586;12.286;2023-07-31T15:05:36;3.38;;;0.60;;
31730;SDS011;18310;55.586;12.286;2023-07-31T15:08:40;5.50;;;0.70;;
31730;SDS011;18310;55.586;12.286;2023-07-31T15:11:44;4.47;;;0.68;;
31730;SDS011;18310;55.586;12.286;2023-07-31T15:14:48;2.17;;;0.60;;
31730;SDS011;18310;55.586;12.286;2023-07-31T15:17:55;1.40;;;0.50;;
31730;SDS011;18310;55.586;12.286;2023-07-31T15:24:06;4.00;;;0.88;;
31730;SDS011;18310;55.586;12.286;2023-07-31T15:27:09;1.65;;;0.57;;
31730;SDS011;18310;55.586;12.286;2023-07-31T15:30:13;4.60;;;1.00;;
31730;SDS011;18310;55.586;12.286;2023-07-31T15:33:16;2.92;;;0.98;;
31730;SDS011;18310;55.586;12.286;2023-07-31T15:36:24;3.55;;;0.80;;
31730;SDS011;18310;55.586;12.286;2023-07-31T15:39:28;4.32;;;0.93;;
31730;SDS011;18310;55.586;12.286;2023-07-31T15:42:34;2.65;;;1.17;;
31730;SDS011;18310;55.586;12.286;2023-07-31T15:45:42;3.60;;;0.80;;
31730;SDS011;18310;55.586;12.286;2023-07-31T15:48:45;1.45;;;0.60;;
31730;SDS011;18310;55.586;12.286;2023-07-31T15:51:51;2.22;;;0.90;;
31730;SDS011;18310;55.586;12.286;2023-07-31T15:54:55;4.30;;;0.80;;
31730;SDS011;18310;55.586;12.286;2023-07-31T15:57:59;4.15;;;0.82;;
31730;SDS011;18310;55.586;12.286;2023-07-31T16:01:09;3.10;;;1.10;;
31730;SDS011;18310;55.586;12.286;2023-07-31T16:04:13;2.13;;;0.77;;
31730;SDS011;18310;55.586;12.286;2023-07-31T16:07:18;3.97;;;0.98;;
31730;SDS011;18310;55.586;12.286;2023-07-31T16:10:23;3.72;;;1.00;;
31730;SDS011;18310;55.586;12.286;2023-07-31T16:13:27;2.33;;;0.88;;
31730;SDS011;18310;55.586;12.286;2023-07-31T16:16:30;1.90;;;0.75;;
31730;SDS011;18310;55.586;12.286;2023-07-31T16:19:35;2.75;;;0.70;;
31730;SDS011;18310;55.586;12.286;2023-07-31T16:22:42;2.88;;;0.82;;
31730;SDS011;18310;55.586;12.286;2023-07-31T16:25:46;3.97;;;1.05;;
31730;SDS011;18310;55.586;12.286;2023-07-31T16:28:54;3.13;;;1.00;;
31730;SDS011;18310;55.586;12.286;2023-07-31T16:31:59;6.93;;;1.08;;
31730;SDS011;18310;55.586;12.286;2023-07-31T16:35:05;3.53;;;0.80;;
31730;SDS011;18310;55.586;12.286;2023-07-31T16:38:11;4.30;;;1.15;;
31730;SDS011;18310;55.586;12.286;2023-07-31T16:41:39;4.40;;;0.88;;
31730;SDS011;18310;55.586;12.286;2023-07-31T16:44:45;4.53;;;0.95;;
31730;SDS011;18310;55.586;12.286;2023-07-31T16:47:57;5.93;;;1.02;;
31730;SDS011;18310;55.586;12.286;2023-07-31T16:51:07;2.47;;;0.80;;
31730;SDS011;18310;55.586;12.286;2023-07-31T16:54:16;4.38;;;1.50;;
31730;SDS011;18310;55.586;12.286;2023-07-31T16:57:25;2.42;;;1.00;;
31730;SDS011;18310;55.586;12.286;2023-07-31T17:00:30;3.25;;;0.82;;
31730;SDS011;18310;55.586;12.286;2023-07-31T17:03:36;3.90;;;1.33;;
31730;SDS011;18310;55.586;12.286;2023-07-31T17:06:44;3.00;;;1.08;;
31730;SDS011;18310;55.586;12.286;2023-07-31T17:09:55;2.80;;;0.82;;
31730;SDS011;18310;55.586;12.286;2023-07-31T17:13:19;6.20;;;0.95;;
31730;SDS011;18310;55.586;12.286;2023-07-31T17:16:32;3.50;;;1.00;;
31730;SDS011;18310;55.586;12.286;2023-07-31T17:19:42;3.50;;;1.02;;
31730;SDS011;18310;55.586;12.286;2023-07-31T17:22:52;2.55;;;0.90;;
31730;SDS011;18310;55.586;12.286;2023-07-31T17:25:58;2.83;;;1.17;;
31730;SDS011;18310;55.586;12.286;2023-07-31T17:29:04;3.88;;;0.93;;
31730;SDS011;18310;55.586;12.286;2023-07-31T17:32:08;3.55;;;1.00;;
31730;SDS011;18310;55.586;12.286;2023-07-31T17:35:13;3.45;;;1.00;;
31730;SDS011;18310;55.586;12.286;2023-07-31T17:38:17;2.42;;;0.90;;
31730;SDS011;18310;55.586;12.286;2023-07-31T17:41:23;3.47;;;1.10;;
31730;SDS011;18310;55.586;12.286;2023-07-31T17:44:30;9.02;;;0.85;;
31730;SDS011;18310;55.586;12.286;2023-07-31T17:47:35;2.85;;;1.08;;
31730;SDS011;18310;55.586;12.286;2023-07-31T17:50:39;3.03;;;0.90;;
31730;SDS011;18310;55.586;12.286;2023-07-31T17:53:43;3.55;;;1.10;;
31730;SDS011;18310;55.586;12.286;2023-07-31T17:56:47;4.50;;;1.90;;
31730;SDS011;18310;55.586;12.286;2023-07-31T17:59:53;4.32;;;1.98;;
31730;SDS011;18310;55.586;12.286;2023-07-31T18:02:57;4.10;;;1.65;;
31730;SDS011;18310;55.586;12.286;2023-07-31T18:06:02;3.40;;;1.40;;
31730;SDS011;18310;55.586;12.286;2023-07-31T18:09:08;4.28;;;1.30;;
31730;SDS011;18310;55.586;12.286;2023-07-31T18:12:13;6.68;;;3.10;;
31730;SDS011;18310;55.586;12.286;2023-07-31T18:15:18;4.47;;;1.77;;
31730;SDS011;18310;55.586;12.286;2023-07-31T18:18:23;3.05;;;1.35;;
31730;SDS011;18310;55.586;12.286;2023-07-31T18:21:46;8.13;;;2.97;;
31730;SDS011;18310;55.586;12.286;2023-07-31T18:24:52;3.92;;;2.05;;
31730;SDS011;18310;55.586;12.286;2023-07-31T18:27:55;3.30;;;1.67;;
31730;SDS011;18310;55.586;12.286;2023-07-31T18:31:00;5.55;;;2.40;;
31730;SDS011;18310;55.586;12.286;2023-07-31T18:34:05;5.40;;;2.53;;
31730;SDS011;18310;55.586;12.286;2023-07-31T18:37:12;6.10;;;3.10;;
31730;SDS011;18310;55.586;12.286;2023-07-31T18:40:16;5.22;;;2.75;;
31730;SDS011;18310;55.586;12.286;2023-07-31T18:43:21;4.50;;;2.17;;
31730;SDS011;18310;55.586;12.286;2023-07-31T18:46:24;6.13;;;1.73;;
31730;SDS011;18310;55.586;12.286;2023-07-31T18:52:34;2.85;;;1.27;;
31730;SDS011;18310;55.586;12.286;2023-07-31T18:55:41;6.07;;;2.13;;
31730;SDS011;18310;55.586;12.286;2023-07-31T18:58:45;2.75;;;1.40;;
31730;SDS011;18310;55.586;12.286;2023-07-31T19:01:51;3.00;;;1.33;;
31730;SDS011;18310;55.586;12.286;2023-07-31T19:04:55;2.33;;;1.10;;
31730;SDS011;18310;55.586;12.286;2023-07-31T19:08:01;1.27;;;0.68;;
31730;SDS011;18310;55.586;12.286;2023-07-31T19:11:07;2.95;;;1.00;;
31730;SDS011;18310;55.586;12.286;2023-07-31T19:14:21;1.95;;;0.93;;